Time;durP1;ratioP1;P1;durP2;ratioP2;P2;SDS_P1;SDS_P2;PMS_P1;PMS_P2;Temp;Humidity;BMP_temperature;BMP_pressure;BME280_temperature;BME280_humidity;BME280_pressure;Samples;Min_cycle;Max_cycle;Signal;HPM_P1;HPM_P2
2023/06/09 00:00:33;;;;;;;;;;;20.60;52.50;;;;;;5051923;28;19916;-72
2023/06/09 00:02:58;;;;;;;;;;;20.60;52.60;;;;;;5052480;28;19990;-73
2023/06/09 00:05:25;;;;;;;;;;;20.50;52.40;;;;;;5051920;28;19913;-72
2023/06/09 00:07:53;;;;;;;;;;;20.50;52.20;;;;;;5052181;28;19920;-72
2023/06/09 00:10:18;;;;;;;;;;;20.50;52.10;;;;;;5051996;28;19951;-72
2023/06/09 00:12:47;;;;;;;;;;;20.50;52.30;;;;;;5052223;28;19912;-72
2023/06/09 00:15:14;;;;;;;;;;;20.40;52.20;;;;;;5051826;28;19913;-72
2023/06/09 00:17:40;;;;;;;;;;;20.30;52.30;;;;;;5051956;28;19962;-73
2023/06/09 00:20:08;;;;;;;;;;;20.30;52.20;;;;;;5051835;28;20331;-73
2023/06/09 00:22:34;;;;;;;;;;;20.30;52.20;;;;;;5052215;28;19913;-72
2023/06/09 00:25:00;;;;;;;;;;;20.20;52.50;;;;;;5051596;28;19955;-73
2023/06/09 00:27:25;;;;;;;;;;;20.10;52.50;;;;;;5051873;28;19909;-72
2023/06/09 00:29:51;;;;;;;;;;;20.00;52.50;;;;;;5051226;28;19917;-72
2023/06/09 00:32:16;;;;;;;;;;;20.00;52.50;;;;;;5051686;28;20372;-72
2023/06/09 00:34:42;;;;;;;;;;;19.90;52.50;;;;;;5050176;28;20047;-72
2023/06/09 00:37:08;;;;;;;;;;;19.80;52.60;;;;;;5066604;28;19951;-73
2023/06/09 00:39:33;;;;;;;;;;;19.80;52.60;;;;;;5071791;28;19968;-72
2023/06/09 00:41:59;;;;;;;;;;;19.70;52.70;;;;;;5071346;28;19916;-72
2023/06/09 00:44:24;;;;;;;;;;;19.70;52.70;;;;;;5071304;28;19912;-72
2023/06/09 00:46:50;;;;;;;;;;;19.60;52.70;;;;;;5071255;28;19919;-73
2023/06/09 00:49:15;;;;;;;;;;;19.50;52.70;;;;;;5053219;28;19912;-72
2023/06/09 00:51:41;;;;;;;;;;;19.50;52.70;;;;;;5071275;28;19923;-72
2023/06/09 00:54:07;;;;;;;;;;;19.40;52.80;;;;;;5071403;28;20391;-72
2023/06/09 00:56:33;;;;;;;;;;;19.40;52.90;;;;;;5071218;28;19960;-72
2023/06/09 00:58:59;;;;;;;;;;;19.30;53.10;;;;;;5071164;28;20420;-72
2023/06/09 01:01:28;;;;;;;;;;;19.30;53.20;;;;;;5052367;28;20017;-73
2023/06/09 01:03:54;;;;;;;;;;;19.30;53.30;;;;;;5051201;28;19921;-72
2023/06/09 01:06:38;;;;;;;;;;;19.20;53.40;;;;;;5054335;28;20038;-72
2023/06/09 01:09:18;;;;;;;;;;;19.20;53.70;;;;;;5055136;28;19925;-72
2023/06/09 01:11:50;;;;;;;;;;;19.20;53.90;;;;;;5055062;28;19909;-72
2023/06/09 01:14:21;;;;;;;;;;;19.20;53.90;;;;;;5054965;28;20377;-73
2023/06/09 01:16:52;;;;;;;;;;;19.10;53.80;;;;;;5036782;28;19924;-73
2023/06/09 01:19:25;;;;;;;;;;;19.10;53.70;;;;;;5054997;28;20392;-73
2023/06/09 01:21:53;;;;;;;;;;;19.00;53.70;;;;;;5055004;28;19944;-73
2023/06/09 01:24:22;;;;;;;;;;;18.90;53.70;;;;;;5035804;28;20414;-73
2023/06/09 01:26:50;;;;;;;;;;;18.80;53.70;;;;;;5054137;28;20015;-73
2023/06/09 01:29:16;;;;;;;;;;;18.80;53.80;;;;;;5055201;28;19917;-73
2023/06/09 01:31:41;;;;;;;;;;;18.70;53.90;;;;;;5071362;28;19916;-73
2023/06/09 01:34:07;;;;;;;;;;;18.70;54.00;;;;;;5075177;28;19952;-73
2023/06/09 01:36:33;;;;;;;;;;;18.70;54.50;;;;;;5064273;28;20418;-73
2023/06/09 01:39:00;;;;;;;;;;;18.70;54.40;;;;;;5054452;28;19917;-73
2023/06/09 01:41:25;;;;;;;;;;;18.70;54.40;;;;;;5054433;28;19937;-73
2023/06/09 01:43:51;;;;;;;;;;;18.60;54.50;;;;;;5054378;28;19921;-73
2023/06/09 01:46:16;;;;;;;;;;;18.60;54.80;;;;;;5054225;28;20301;-72
2023/06/09 01:48:46;;;;;;;;;;;18.60;54.70;;;;;;5054874;28;20333;-73
2023/06/09 01:51:18;;;;;;;;;;;18.50;54.70;;;;;;5054172;28;20020;-73
2023/06/09 01:53:47;;;;;;;;;;;18.50;54.70;;;;;;5054680;28;19924;-72
2023/06/09 01:56:23;;;;;;;;;;;18.40;54.70;;;;;;5054163;28;19951;-73
2023/06/09 01:58:53;;;;;;;;;;;18.40;54.90;;;;;;5054451;28;19916;-72
2023/06/09 02:01:20;;;;;;;;;;;18.30;54.90;;;;;;5052908;28;19916;-73
2023/06/09 02:03:47;;;;;;;;;;;18.30;55.00;;;;;;5026329;28;20012;-72
2023/06/09 02:06:13;;;;;;;;;;;18.30;55.10;;;;;;5033912;28;19916;-73
2023/06/09 02:08:39;;;;;;;;;;;18.30;55.30;;;;;;5034575;28;19920;-73
2023/06/09 02:11:05;;;;;;;;;;;18.30;55.30;;;;;;5034003;28;19920;-73
2023/06/09 02:13:30;;;;;;;;;;;18.30;55.20;;;;;;5046625;28;19913;-73
2023/06/09 02:15:55;;;;;;;;;;;18.30;55.10;;;;;;5053710;28;20291;-71
2023/06/09 02:18:22;;;;;;;;;;;18.20;55.10;;;;;;5054294;28;20345;-71
2023/06/09 02:20:48;;;;;;;;;;;18.20;55.40;;;;;;5035840;28;19924;-71
2023/06/09 02:23:14;;;;;;;;;;;18.10;55.70;;;;;;5035932;28;19923;-71
2023/06/09 02:25:40;;;;;;;;;;;18.20;55.80;;;;;;5053547;28;19942;-71
2023/06/09 02:28:06;;;;;;;;;;;18.20;55.80;;;;;;5054139;28;19912;-71
2023/06/09 02:30:32;;;;;;;;;;;18.20;55.80;;;;;;5058805;28;19912;-72
2023/06/09 02:32:59;;;;;;;;;;;18.10;55.80;;;;;;5054399;28;19992;-78
2023/06/09 02:35:25;;;;;;;;;;;18.10;55.80;;;;;;5054229;28;19970;-77
2023/06/09 02:37:52;;;;;;;;;;;18.10;56.80;;;;;;5074135;28;20330;-77
2023/06/09 02:40:18;;;;;;;;;;;18.10;57.60;;;;;;5065543;28;19952;-77
2023/06/09 02:42:43;;;;;;;;;;;18.20;58.20;;;;;;5054038;28;19953;-77
2023/06/09 02:45:09;;;;;;;;;;;18.20;59.00;;;;;;5053576;28;19913;-77
2023/06/09 02:47:35;;;;;;;;;;;18.20;59.10;;;;;;5035769;28;19913;-77
2023/06/09 02:50:00;;;;;;;;;;;18.20;59.00;;;;;;5053719;28;19994;-77
2023/06/09 02:52:28;;;;;;;;;;;18.30;59.30;;;;;;5054157;28;19913;-77
2023/06/09 02:54:56;;;;;;;;;;;18.30;59.00;;;;;;5053527;28;19924;-77
2023/06/09 02:57:21;;;;;;;;;;;18.30;58.40;;;;;;5055189;28;19924;-79
2023/06/09 02:59:47;;;;;;;;;;;18.30;58.10;;;;;;5053586;28;19916;-79
2023/06/09 03:02:13;;;;;;;;;;;18.20;57.90;;;;;;5053875;28;20370;-79
2023/06/09 03:04:40;;;;;;;;;;;18.20;57.80;;;;;;5053446;28;20277;-78
2023/06/09 03:07:09;;;;;;;;;;;18.20;57.60;;;;;;5053895;28;20360;-80
2023/06/09 03:09:35;;;;;;;;;;;18.10;57.50;;;;;;5053522;28;19958;-79
2023/06/09 03:12:00;;;;;;;;;;;18.10;57.60;;;;;;5053343;28;19934;-79
2023/06/09 03:14:26;;;;;;;;;;;18.00;57.50;;;;;;5052933;28;19921;-79
2023/06/09 03:16:53;;;;;;;;;;;18.00;57.40;;;;;;5053404;28;19920;-79
2023/06/09 03:19:19;;;;;;;;;;;18.00;57.50;;;;;;5051592;28;20023;-79
2023/06/09 03:21:45;;;;;;;;;;;17.90;57.40;;;;;;5053086;28;20004;-79
2023/06/09 03:24:11;;;;;;;;;;;17.90;57.50;;;;;;5053139;28;19917;-79
2023/06/09 03:26:37;;;;;;;;;;;17.80;57.40;;;;;;5053035;28;19947;-79
2023/06/09 03:29:02;;;;;;;;;;;17.80;57.40;;;;;;5052440;28;20364;-79
2023/06/09 03:31:28;;;;;;;;;;;17.80;57.40;;;;;;5068037;28;19909;-78
2023/06/09 03:33:54;;;;;;;;;;;17.80;57.40;;;;;;5071508;28;19916;-79
2023/06/09 03:36:21;;;;;;;;;;;17.80;57.50;;;;;;5064303;28;19913;-79
2023/06/09 03:38:46;;;;;;;;;;;17.80;57.60;;;;;;5052639;28;19924;-79
2023/06/09 03:41:12;;;;;;;;;;;17.80;57.60;;;;;;5052439;28;19908;-78
2023/06/09 03:43:37;;;;;;;;;;;17.80;57.60;;;;;;5053280;28;19967;-78
2023/06/09 03:46:03;;;;;;;;;;;17.80;57.50;;;;;;5052354;28;19935;-79
2023/06/09 03:48:28;;;;;;;;;;;17.80;57.50;;;;;;5052745;28;19908;-79
2023/06/09 03:50:54;;;;;;;;;;;17.80;57.50;;;;;;5048921;28;20039;-79
2023/06/09 03:53:20;;;;;;;;;;;17.80;57.50;;;;;;5052219;28;19948;-79
2023/06/09 03:55:45;;;;;;;;;;;17.80;57.50;;;;;;5052033;28;19963;-78
2023/06/09 03:58:12;;;;;;;;;;;17.80;57.50;;;;;;5051893;28;19913;-79
2023/06/09 04:00:37;;;;;;;;;;;17.80;57.60;;;;;;5052223;28;20360;-79
2023/06/09 04:03:03;;;;;;;;;;;17.90;57.60;;;;;;5051326;28;19912;-79
2023/06/09 04:05:28;;;;;;;;;;;17.90;57.70;;;;;;5052183;28;20427;-78
2023/06/09 04:07:54;;;;;;;;;;;17.90;57.80;;;;;;5051997;28;20140;-79
2023/06/09 04:10:19;;;;;;;;;;;18.00;57.90;;;;;;5052364;28;20004;-78
2023/06/09 04:12:44;;;;;;;;;;;18.00;58.00;;;;;;5050793;28;20010;-79
2023/06/09 04:15:10;;;;;;;;;;;18.10;58.00;;;;;;5052211;28;20399;-79
2023/06/09 04:17:39;;;;;;;;;;;18.20;58.10;;;;;;5052295;28;19924;-78
2023/06/09 04:20:07;;;;;;;;;;;18.20;58.00;;;;;;5052203;28;20015;-79
2023/06/09 04:22:33;;;;;;;;;;;18.30;58.10;;;;;;5052432;28;20378;-79
2023/06/09 04:24:59;;;;;;;;;;;18.40;58.10;;;;;;5051986;28;20003;-78
2023/06/09 04:27:25;;;;;;;;;;;18.50;58.20;;;;;;5052241;28;19913;-78
2023/06/09 04:29:51;;;;;;;;;;;18.60;58.30;;;;;;5047057;28;20359;-77
2023/06/09 04:32:17;;;;;;;;;;;18.70;58.40;;;;;;5032562;28;19948;-79
2023/06/09 04:34:45;;;;;;;;;;;18.90;58.70;;;;;;5032062;28;19924;-79
2023/06/09 04:37:12;;;;;;;;;;;19.20;58.50;;;;;;5062771;28;20011;-77
2023/06/09 04:39:41;;;;;;;;;;;19.30;58.20;;;;;;5072382;28;19912;-78
2023/06/09 04:42:11;;;;;;;;;;;19.40;58.00;;;;;;5075785;28;19928;-78
2023/06/09 04:44:36;;;;;;;;;;;19.50;57.80;;;;;;5075669;28;20012;-77
2023/06/09 04:47:02;;;;;;;;;;;19.60;57.90;;;;;;5076119;28;19961;-78
2023/06/09 04:49:30;;;;;;;;;;;19.70;57.80;;;;;;5076065;28;20277;-77
2023/06/09 04:51:56;;;;;;;;;;;19.80;57.90;;;;;;5076390;28;19913;-78
2023/06/09 04:54:25;;;;;;;;;;;20.00;58.00;;;;;;5075938;28;19965;-78
2023/06/09 04:56:52;;;;;;;;;;;20.30;58.90;;;;;;5075371;28;19917;-77
2023/06/09 04:59:20;;;;;;;;;;;20.80;59.40;;;;;;5054691;28;20003;-78
2023/06/09 05:01:46;;;;;;;;;;;21.40;59.70;;;;;;5048638;28;19923;-78
2023/06/09 05:04:12;;;;;;;;;;;22.10;59.40;;;;;;5053818;28;20382;-78
2023/06/09 05:06:37;;;;;;;;;;;22.70;58.90;;;;;;5054442;28;19917;-77
2023/06/09 05:09:06;;;;;;;;;;;23.30;58.20;;;;;;5055129;28;20015;-77
2023/06/09 05:11:32;;;;;;;;;;;23.70;57.00;;;;;;5053688;28;19909;-77
2023/06/09 05:13:58;;;;;;;;;;;23.90;55.90;;;;;;5053970;28;20376;-77
2023/06/09 05:16:27;;;;;;;;;;;24.10;55.20;;;;;;5054857;28;19970;-77
2023/06/09 05:18:52;;;;;;;;;;;24.30;54.50;;;;;;5054915;28;19975;-77
2023/06/09 05:21:18;;;;;;;;;;;24.40;53.60;;;;;;5054590;28;19952;-77
2023/06/09 05:23:43;;;;;;;;;;;24.50;53.00;;;;;;5055019;28;19916;-77
2023/06/09 05:26:09;;;;;;;;;;;24.40;52.10;;;;;;5054439;28;19970;-76
2023/06/09 05:28:34;;;;;;;;;;;24.30;51.90;;;;;;5038162;28;19944;-77
2023/06/09 05:31:01;;;;;;;;;;;24.30;51.60;;;;;;5054384;28;19958;-77
2023/06/09 05:33:27;;;;;;;;;;;24.20;51.60;;;;;;5054946;28;19919;-77
2023/06/09 05:35:52;;;;;;;;;;;24.20;51.70;;;;;;5058640;28;20377;-77
2023/06/09 05:38:19;;;;;;;;;;;24.40;52.20;;;;;;5063603;28;19913;-76
2023/06/09 05:40:45;;;;;;;;;;;24.60;51.90;;;;;;5051071;28;20361;-77
2023/06/09 05:43:10;;;;;;;;;;;24.80;51.70;;;;;;5035026;28;19920;-76
2023/06/09 05:45:37;;;;;;;;;;;25.10;51.30;;;;;;5053797;28;20392;-77
2023/06/09 05:48:03;;;;;;;;;;;25.40;51.30;;;;;;5050665;28;19959;-77
2023/06/09 05:50:28;;;;;;;;;;;25.80;51.20;;;;;;5051851;28;19972;-77
2023/06/09 05:53:00;;;;;;;;;;;26.40;51.20;;;;;;5051608;28;19966;-77
2023/06/09 05:55:25;;;;;;;;;;;27.00;50.40;;;;;;5036594;28;20276;-78
2023/06/09 05:57:51;;;;;;;;;;;27.70;49.40;;;;;;5036147;28;19917;-77
2023/06/09 06:00:17;;;;;;;;;;;28.30;47.80;;;;;;5052788;28;20463;-76
2023/06/09 06:02:44;;;;;;;;;;;28.90;46.60;;;;;;5053033;28;19913;-78
2023/06/09 06:05:10;;;;;;;;;;;29.40;45.50;;;;;;5052241;28;19916;-77
2023/06/09 06:07:37;;;;;;;;;;;30.00;44.90;;;;;;5052077;28;19920;-77
2023/06/09 06:10:06;;;;;;;;;;;30.60;43.60;;;;;;5041045;28;19917;-78
2023/06/09 06:12:32;;;;;;;;;;;31.10;42.30;;;;;;5053735;28;20261;-78
2023/06/09 06:14:58;;;;;;;;;;;31.70;41.40;;;;;;5053272;28;19913;-78
2023/06/09 06:17:23;;;;;;;;;;;32.20;40.50;;;;;;5051825;28;19920;-78
2023/06/09 06:19:49;;;;;;;;;;;32.80;39.90;;;;;;5053951;28;19963;-78
2023/06/09 06:22:15;;;;;;;;;;;33.30;38.40;;;;;;5053258;28;19917;-78
2023/06/09 06:24:40;;;;;;;;;;;33.70;37.20;;;;;;5034787;28;19933;-77
2023/06/09 06:27:06;;;;;;;;;;;34.10;36.40;;;;;;5049001;28;20015;-78
2023/06/09 06:29:32;;;;;;;;;;;34.50;35.90;;;;;;5053414;28;19921;-78
2023/06/09 06:31:57;;;;;;;;;;;34.90;35.20;;;;;;5053938;28;19958;-78
2023/06/09 06:34:25;;;;;;;;;;;35.40;34.60;;;;;;5051520;28;19925;-78
2023/06/09 06:36:50;;;;;;;;;;;35.80;33.80;;;;;;5055098;28;20011;-77
2023/06/09 06:39:16;;;;;;;;;;;36.20;32.90;;;;;;5044394;28;20378;-79
2023/06/09 06:41:41;;;;;;;;;;;36.50;32.30;;;;;;5053066;28;20264;-79
2023/06/09 06:44:06;;;;;;;;;;;36.90;31.30;;;;;;5051434;28;19917;-79
2023/06/09 06:46:32;;;;;;;;;;;37.30;30.80;;;;;;5034994;28;19916;-79
2023/06/09 06:48:57;;;;;;;;;;;37.60;30.40;;;;;;5053924;28;19935;-79
2023/06/09 06:51:23;;;;;;;;;;;37.90;30.00;;;;;;5052569;28;20290;-76
2023/06/09 06:53:48;;;;;;;;;;;38.30;29.50;;;;;;5054308;28;20284;-77
2023/06/09 06:56:14;;;;;;;;;;;38.60;28.90;;;;;;5051841;28;19917;-77
2023/06/09 06:58:40;;;;;;;;;;;39.00;28.40;;;;;;5052801;28;20342;-79
2023/06/09 07:01:05;;;;;;;;;;;39.20;27.60;;;;;;5052913;28;19917;-77
2023/06/09 07:03:33;;;;;;;;;;;39.40;27.60;;;;;;5050268;28;19919;-77
2023/06/09 07:05:58;;;;;;;;;;;39.70;27.00;;;;;;5051201;28;19917;-78
2023/06/09 07:08:24;;;;;;;;;;;39.90;26.40;;;;;;5050029;28;19923;-77
2023/06/09 07:10:49;;;;;;;;;;;39.90;25.90;;;;;;5052640;28;19964;-78
2023/06/09 07:13:15;;;;;;;;;;;40.10;25.90;;;;;;5051903;28;19913;-78
2023/06/09 07:15:41;;;;;;;;;;;40.20;25.90;;;;;;5052802;28;19913;-78
2023/06/09 07:18:06;;;;;;;;;;;40.40;25.30;;;;;;5053730;28;19928;-78
2023/06/09 07:20:31;;;;;;;;;;;40.40;24.60;;;;;;5053045;28;19963;-78
2023/06/09 07:22:58;;;;;;;;;;;40.60;24.50;;;;;;5053770;28;19913;-78
2023/06/09 07:25:23;;;;;;;;;;;40.70;24.20;;;;;;5053215;28;19912;-78
2023/06/09 07:27:48;;;;;;;;;;;40.70;23.90;;;;;;5056549;28;20411;-78
2023/06/09 07:30:14;;;;;;;;;;;40.50;23.30;;;;;;5034725;28;19913;-78
2023/06/09 07:32:40;;;;;;;;;;;40.40;23.30;;;;;;5035932;28;19924;-78
2023/06/09 07:35:05;;;;;;;;;;;40.30;23.30;;;;;;5035656;28;20011;-77
2023/06/09 07:37:31;;;;;;;;;;;40.30;23.30;;;;;;5053852;28;20365;-78
2023/06/09 07:39:57;;;;;;;;;;;40.20;23.20;;;;;;5053443;28;20287;-77
2023/06/09 07:42:22;;;;;;;;;;;40.30;23.50;;;;;;5053019;28;19921;-78
2023/06/09 07:44:47;;;;;;;;;;;40.50;23.60;;;;;;5052998;28;19917;-78
2023/06/09 07:47:13;;;;;;;;;;;40.70;23.60;;;;;;5034094;28;20296;-78
2023/06/09 07:49:38;;;;;;;;;;;41.00;23.40;;;;;;5053316;28;20410;-78
2023/06/09 07:52:04;;;;;;;;;;;41.30;23.20;;;;;;5038142;28;20016;-78
2023/06/09 07:54:29;;;;;;;;;;;41.40;23.10;;;;;;5035398;28;19982;-78
2023/06/09 07:56:55;;;;;;;;;;;41.50;22.70;;;;;;5050646;28;19921;-78
2023/06/09 07:59:21;;;;;;;;;;;41.60;22.10;;;;;;5052194;28;19916;-78
2023/06/09 08:01:46;;;;;;;;;;;41.40;22.00;;;;;;5050621;28;19965;-78
2023/06/09 08:04:12;;;;;;;;;;;41.50;22.20;;;;;;5052660;28;19942;-78
2023/06/09 08:06:38;;;;;;;;;;;41.70;22.10;;;;;;5053144;28;19913;-78
2023/06/09 08:09:03;;;;;;;;;;;41.80;22.20;;;;;;5051184;28;19928;-77
2023/06/09 08:11:29;;;;;;;;;;;42.20;22.20;;;;;;5053248;28;19909;-78
2023/06/09 08:13:54;;;;;;;;;;;42.20;21.90;;;;;;5051530;28;19921;-78
2023/06/09 08:16:20;;;;;;;;;;;42.40;21.80;;;;;;5052455;28;19920;-78
2023/06/09 08:18:45;;;;;;;;;;;42.60;21.50;;;;;;5052235;28;19923;-78
2023/06/09 08:21:11;;;;;;;;;;;42.60;21.50;;;;;;5053159;28;20011;-78
2023/06/09 08:23:37;;;;;;;;;;;42.70;21.30;;;;;;5050650;28;20000;-78
2023/06/09 08:26:02;;;;;;;;;;;42.70;21.20;;;;;;5050548;28;19917;-78
2023/06/09 08:28:28;;;;;;;;;;;42.80;20.80;;;;;;5052946;28;20347;-79
2023/06/09 08:30:53;;;;;;;;;;;42.80;20.60;;;;;;5052416;28;19967;-78
2023/06/09 08:33:31;;;;;;;;;;;42.90;20.60;;;;;;5052599;28;20361;-78
2023/06/09 08:35:56;;;;;;;;;;;42.90;20.80;;;;;;5051682;28;19931;-78
2023/06/09 08:38:24;;;;;;;;;;;43.10;20.50;;;;;;5054043;28;19960;-79
2023/06/09 08:40:52;;;;;;;;;;;43.00;20.30;;;;;;5053177;28;20407;-81
2023/06/09 08:43:20;;;;;;;;;;;42.80;20.10;;;;;;5032333;28;19917;-79
2023/06/09 08:45:45;;;;;;;;;;;42.70;20.30;;;;;;5049815;28;19917;-79
2023/06/09 08:48:13;;;;;;;;;;;42.70;20.20;;;;;;5032991;28;19913;-78
2023/06/09 08:50:41;;;;;;;;;;;42.60;20.40;;;;;;5033580;28;19917;-78
2023/06/09 08:53:12;;;;;;;;;;;42.30;20.30;;;;;;5051022;28;20284;-79
2023/06/09 08:55:38;;;;;;;;;;;42.30;20.40;;;;;;5050206;28;20470;-78
2023/06/09 08:58:04;;;;;;;;;;;42.40;20.20;;;;;;5051248;28;19962;-79
2023/06/09 09:00:29;;;;;;;;;;;42.20;19.70;;;;;;5033559;28;19919;-73
2023/06/09 09:02:56;;;;;;;;;;;42.10;19.70;;;;;;5050360;28;19921;-73
2023/06/09 09:05:22;;;;;;;;;;;42.10;19.80;;;;;;5050243;28;20280;-73
2023/06/09 09:07:48;;;;;;;;;;;42.30;20.00;;;;;;5051125;28;19931;-72
2023/06/09 09:10:14;;;;;;;;;;;42.40;19.30;;;;;;5051459;28;20348;-73
2023/06/09 09:12:49;;;;;;;;;;;42.40;18.70;;;;;;5050457;28;19925;-72
2023/06/09 09:15:17;;;;;;;;;;;42.30;18.50;;;;;;5051294;28;19920;-73
2023/06/09 09:17:51;;;;;;;;;;;42.10;18.50;;;;;;5032417;28;19967;-73
2023/06/09 09:20:17;;;;;;;;;;;41.90;19.10;;;;;;5051244;28;20008;-73
2023/06/09 09:22:43;;;;;;;;;;;42.10;19.10;;;;;;5048964;28;20323;-73
2023/06/09 09:25:08;;;;;;;;;;;42.20;19.00;;;;;;5049645;28;20011;-73
2023/06/09 09:27:34;;;;;;;;;;;42.30;18.80;;;;;;5036543;28;19996;-73
2023/06/09 09:29:59;;;;;;;;;;;42.40;18.60;;;;;;5054494;28;19912;-74
2023/06/09 09:32:25;;;;;;;;;;;42.30;18.70;;;;;;5053679;28;20357;-73
2023/06/09 09:34:51;;;;;;;;;;;42.30;18.80;;;;;;5053408;28;19913;-73
2023/06/09 09:37:16;;;;;;;;;;;42.30;18.60;;;;;;5054510;28;19925;-72
2023/06/09 09:39:52;;;;;;;;;;;42.20;18.70;;;;;;5054572;28;19919;-72
2023/06/09 09:42:21;;;;;;;;;;;42.20;18.80;;;;;;5053296;28;20288;-73
2023/06/09 09:44:47;;;;;;;;;;;42.30;19.00;;;;;;5053336;28;19913;-72
2023/06/09 09:47:14;;;;;;;;;;;42.50;19.10;;;;;;5035649;28;20007;-72
2023/06/09 09:50:10;;;;;;;;;;;42.60;18.70;;;;;;5053857;28;19916;-72
2023/06/09 09:52:37;;;;;;;;;;;42.50;18.80;;;;;;5050998;28;19921;-74
2023/06/09 09:55:08;;;;;;;;;;;42.70;19.00;;;;;;5052052;28;19927;-73
2023/06/09 09:57:35;;;;;;;;;;;42.70;18.60;;;;;;5052929;28;20423;-72
2023/06/09 10:00:07;;;;;;;;;;;42.70;18.40;;;;;;5054220;28;19998;-73
2023/06/09 10:02:35;;;;;;;;;;;42.50;18.50;;;;;;5052827;28;20375;-72
2023/06/09 10:05:03;;;;;;;;;;;42.30;18.20;;;;;;5054271;28;19920;-72
2023/06/09 10:07:29;;;;;;;;;;;41.90;18.30;;;;;;5052079;28;20233;-74
2023/06/09 10:09:56;;;;;;;;;;;41.70;18.80;;;;;;5054125;28;20002;-73
2023/06/09 10:12:22;;;;;;;;;;;41.80;19.10;;;;;;5052545;28;20036;-72
2023/06/09 10:14:51;;;;;;;;;;;41.90;18.90;;;;;;5035766;28;19923;-73
2023/06/09 10:17:22;;;;;;;;;;;41.80;18.70;;;;;;5053221;28;19927;-73
2023/06/09 10:19:50;;;;;;;;;;;41.60;18.90;;;;;;5054876;28;19913;-73
2023/06/09 10:22:16;;;;;;;;;;;41.50;18.90;;;;;;5035691;28;20052;-73
2023/06/09 10:24:42;;;;;;;;;;;41.30;19.00;;;;;;5054492;28;20383;-74
2023/06/09 10:27:08;;;;;;;;;;;41.20;19.20;;;;;;5052474;28;19917;-73
2023/06/09 10:29:33;;;;;;;;;;;41.00;18.90;;;;;;5051066;28;20213;-73
2023/06/09 10:31:59;;;;;;;;;;;40.90;19.30;;;;;;5053786;28;19960;-73
2023/06/09 10:34:26;;;;;;;;;;;40.90;19.60;;;;;;5053965;28;19920;-73
2023/06/09 10:36:53;;;;;;;;;;;40.90;19.40;;;;;;5065529;28;19947;-73
2023/06/09 10:39:25;;;;;;;;;;;40.80;19.60;;;;;;5054772;28;20250;-73
2023/06/09 10:42:07;;;;;;;;;;;40.70;19.80;;;;;;5053534;28;19940;-73
2023/06/09 10:44:32;;;;;;;;;;;40.90;19.90;;;;;;5052683;28;19997;-73
2023/06/09 10:46:59;;;;;;;;;;;40.80;19.90;;;;;;5035807;28;19983;-73
2023/06/09 10:49:25;;;;;;;;;;;40.70;19.90;;;;;;5052139;28;19916;-73
2023/06/09 10:51:50;;;;;;;;;;;40.40;20.00;;;;;;5038858;28;19923;-74
2023/06/09 10:54:16;;;;;;;;;;;40.30;20.60;;;;;;5035508;28;19955;-72
2023/06/09 10:56:45;;;;;;;;;;;40.30;20.70;;;;;;5052554;28;19947;-73
2023/06/09 10:59:25;;;;;;;;;;;40.40;20.80;;;;;;5053863;28;19924;-73
2023/06/09 11:02:00;;;;;;;;;;;40.30;20.30;;;;;;5049336;28;19931;-74
2023/06/09 11:04:44;;;;;;;;;;;40.10;20.70;;;;;;5053338;28;19935;-73
2023/06/09 11:07:09;;;;;;;;;;;39.90;20.80;;;;;;5051451;28;20031;-73
2023/06/09 11:09:36;;;;;;;;;;;39.80;21.00;;;;;;5052014;28;19963;-73
2023/06/09 11:12:01;;;;;;;;;;;39.60;21.20;;;;;;5033611;28;20369;-73
2023/06/09 11:14:45;;;;;;;;;;;39.30;21.40;;;;;;5051781;28;19913;-74
2023/06/09 11:17:14;;;;;;;;;;;39.20;21.40;;;;;;5051921;28;19925;-73
2023/06/09 11:19:39;;;;;;;;;;;39.00;21.80;;;;;;5051733;28;19960;-73
2023/06/09 11:22:06;;;;;;;;;;;39.00;21.90;;;;;;5054796;28;20403;-74
2023/06/09 11:24:51;;;;;;;;;;;39.00;21.50;;;;;;5052848;28;19912;-73
2023/06/09 11:27:21;;;;;;;;;;;39.10;21.60;;;;;;5035380;28;19912;-73
2023/06/09 11:30:06;;;;;;;;;;;39.20;21.90;;;;;;5036553;28;19912;-73
2023/06/09 11:32:48;;;;;;;;;;;39.30;21.90;;;;;;5037025;28;19917;-73
2023/06/09 11:35:22;;;;;;;;;;;39.40;21.90;;;;;;5050285;28;19916;-73
2023/06/09 11:37:51;;;;;;;;;;;39.50;21.60;;;;;;5047845;28;19928;-73
2023/06/09 11:40:17;;;;;;;;;;;39.40;21.30;;;;;;5043835;28;19916;-73
2023/06/09 11:42:43;;;;;;;;;;;39.20;21.70;;;;;;5036390;28;19921;-73
2023/06/09 11:45:08;;;;;;;;;;;39.20;21.80;;;;;;5021639;28;19916;-73
2023/06/09 11:47:34;;;;;;;;;;;39.10;21.60;;;;;;5050820;28;19923;-73
2023/06/09 11:50:09;;;;;;;;;;;39.00;21.30;;;;;;5051616;28;19920;-74
2023/06/09 11:52:34;;;;;;;;;;;38.80;21.60;;;;;;5053004;28;19967;-73
2023/06/09 11:55:04;;;;;;;;;;;38.90;21.40;;;;;;5050472;28;19944;-74
2023/06/09 11:57:33;;;;;;;;;;;39.00;21.40;;;;;;5052613;28;20338;-74
2023/06/09 11:59:59;;;;;;;;;;;39.00;21.40;;;;;;5045247;28;20402;-74
2023/06/09 12:02:25;;;;;;;;;;;38.90;21.60;;;;;;5052845;28;19913;-74
2023/06/09 12:04:51;;;;;;;;;;;38.80;22.00;;;;;;5052671;28;19920;-75
2023/06/09 12:07:17;;;;;;;;;;;38.90;21.90;;;;;;5032900;28;20015;-73
2023/06/09 12:09:43;;;;;;;;;;;38.80;21.50;;;;;;5052327;28;19920;-73
2023/06/09 12:12:09;;;;;;;;;;;38.60;21.40;;;;;;5052619;28;19912;-73
2023/06/09 12:14:35;;;;;;;;;;;38.40;21.70;;;;;;5050843;28;19951;-75
2023/06/09 12:17:01;;;;;;;;;;;38.40;21.70;;;;;;5049953;28;19987;-73
2023/06/09 12:19:27;;;;;;;;;;;38.30;21.90;;;;;;5052604;28;19974;-74
2023/06/09 12:21:53;;;;;;;;;;;38.30;22.10;;;;;;5052679;28;19917;-72
2023/06/09 12:24:18;;;;;;;;;;;38.30;22.20;;;;;;5052635;28;20333;-72
2023/06/09 12:26:48;;;;;;;;;;;38.30;21.90;;;;;;5052530;28;19917;-73
2023/06/09 12:29:14;;;;;;;;;;;38.30;22.10;;;;;;5035045;28;19970;-73
2023/06/09 12:31:46;;;;;;;;;;;38.30;21.90;;;;;;5052190;28;20007;-73
2023/06/09 12:34:25;;;;;;;;;;;38.10;21.80;;;;;;5052551;28;19913;-74
2023/06/09 12:36:51;;;;;;;;;;;37.90;22.00;;;;;;5065413;28;19925;-73
2023/06/09 12:39:21;;;;;;;;;;;37.80;22.50;;;;;;5058497;28;19913;-73
2023/06/09 12:41:48;;;;;;;;;;;37.70;22.50;;;;;;5052489;28;19928;-74
2023/06/09 12:44:20;;;;;;;;;;;37.70;22.30;;;;;;5052862;28;20388;-73
2023/06/09 12:46:51;;;;;;;;;;;37.70;22.30;;;;;;5052644;28;19916;-74
2023/06/09 12:49:16;;;;;;;;;;;37.70;22.40;;;;;;5034816;28;20277;-74
2023/06/09 12:51:43;;;;;;;;;;;37.60;22.40;;;;;;5050699;28;19919;-74
2023/06/09 12:54:12;;;;;;;;;;;37.50;22.60;;;;;;5046300;28;19916;-74
2023/06/09 12:56:38;;;;;;;;;;;37.70;22.80;;;;;;5050387;28;19979;-72
2023/06/09 12:59:05;;;;;;;;;;;37.70;22.80;;;;;;5067807;28;19917;-74
2023/06/09 13:01:31;;;;;;;;;;;37.80;22.90;;;;;;5053097;28;19912;-73
2023/06/09 13:03:56;;;;;;;;;;;38.00;22.40;;;;;;5053367;28;19913;-73
2023/06/09 13:06:22;;;;;;;;;;;38.00;22.40;;;;;;5056317;28;20336;-73
2023/06/09 13:08:48;;;;;;;;;;;37.90;22.20;;;;;;5055480;28;20460;-73
2023/06/09 13:11:13;;;;;;;;;;;37.90;22.20;;;;;;5056130;28;19917;-73
2023/06/09 13:13:40;;;;;;;;;;;38.00;22.30;;;;;;5052508;28;19985;-74
2023/06/09 13:16:05;;;;;;;;;;;38.10;22.30;;;;;;5055606;28;19932;-73
2023/06/09 13:18:31;;;;;;;;;;;38.10;22.00;;;;;;5055778;28;20276;-73
2023/06/09 13:20:56;;;;;;;;;;;38.00;21.80;;;;;;5055351;28;19924;-73
2023/06/09 13:23:22;;;;;;;;;;;37.90;21.70;;;;;;5053833;28;19913;-74
2023/06/09 13:25:47;;;;;;;;;;;37.70;21.80;;;;;;5036922;28;20521;-73
2023/06/09 13:28:15;;;;;;;;;;;37.70;22.00;;;;;;5055420;28;19912;-72
2023/06/09 13:30:41;;;;;;;;;;;37.50;21.90;;;;;;5055817;28;19924;-72
2023/06/09 13:33:07;;;;;;;;;;;37.50;22.00;;;;;;5037148;28;19917;-72
2023/06/09 13:35:33;;;;;;;;;;;37.50;22.30;;;;;;5052135;28;19908;-73
2023/06/09 13:37:59;;;;;;;;;;;37.50;22.80;;;;;;5037325;28;20422;-73
2023/06/09 13:40:24;;;;;;;;;;;37.40;23.20;;;;;;5037544;28;19999;-73
2023/06/09 13:42:53;;;;;;;;;;;37.30;23.60;;;;;;5055166;28;19925;-73
2023/06/09 13:45:19;;;;;;;;;;;37.10;23.60;;;;;;5034808;28;19909;-73
2023/06/09 13:47:45;;;;;;;;;;;36.80;23.80;;;;;;5054763;28;19932;-72
2023/06/09 13:50:10;;;;;;;;;;;36.60;24.20;;;;;;5054996;28;20156;-72
2023/06/09 13:52:37;;;;;;;;;;;36.40;23.80;;;;;;5036448;28;19913;-73
2023/06/09 13:55:03;;;;;;;;;;;36.00;24.10;;;;;;5052072;28;19941;-73
2023/06/09 13:57:29;;;;;;;;;;;35.80;24.30;;;;;;5054242;28;20375;-73
2023/06/09 13:59:55;;;;;;;;;;;35.80;24.30;;;;;;5055046;28;19912;-73
2023/06/09 14:02:20;;;;;;;;;;;35.70;23.90;;;;;;5053816;28;19913;-73
2023/06/09 14:04:46;;;;;;;;;;;35.70;24.10;;;;;;5051596;28;19913;-73
2023/06/09 14:07:11;;;;;;;;;;;35.70;24.10;;;;;;5046237;28;19955;-74
2023/06/09 14:09:37;;;;;;;;;;;35.80;24.20;;;;;;5054287;28;19952;-73
2023/06/09 14:12:02;;;;;;;;;;;36.00;23.60;;;;;;5051020;28;19913;-73
2023/06/09 14:14:28;;;;;;;;;;;36.00;23.40;;;;;;5046893;28;19936;-74